Latest Weather Observations for Marion Reef

IDQ60801

Issued at 7:42 pm EST Sunday 29 March 2020 (issued every 10 minutes, with the page automatically refreshed every 10 minutes)

About weather observations | Map of weather stations | Latest weather observations for QLD | Other Formats
Station Details ID: 200704 Name: MARION REEF Lat: -19.10 Lon: 152.39 Height: 2.0 m
Data from the previous 72 hours. | See also: Recent months for locations in Queensland
Date/Time
EST
Temp
°C
App
Temp
°C
Dew
Point
°C
Rel
Hum
%
Delta-T
°C
Wind Press
QNH
hPa
Press
MSL
hPa
Rain since
9am
mm
Dir  Spd
km/h
Gust
km/h
Spd
kts
Gust
kts
29/07:30pm 27.2 - - - - SE 37 43 20 23 1012.6 1012.6 -
29/07:00pm 26.3 - - - - SE 30 35 16 19 1012.2 1012.2 -
29/06:30pm 25.5 - - - - ESE 35 39 19 21 1012.0 1012.0 -
29/06:00pm 26.1 - - - - ESE 37 43 20 23 1011.7 1011.7 -
29/05:58pm 26.5 - - - - ESE 37 43 20 23 1011.7 1011.7 -
29/05:30pm 26.9 - - - - SE 37 43 20 23 1011.3 1011.3 -
29/05:00pm 26.8 - - - - SE 37 43 20 23 1011.1 1011.1 -
29/04:30pm 26.6 - - - - SE 37 46 20 25 1010.8 1010.8 -
29/04:00pm 26.4 - - - - SE 39 44 21 24 1010.6 1010.6 -
29/03:30pm 26.6 - - - - SE 35 41 19 22 1010.4 1010.4 -
29/03:00pm 26.6 - - - - SE 39 44 21 24 1010.3 1010.3 -
29/02:44pm 26.2 - - - - SE 39 48 21 26 1010.0 - -
29/02:30pm 27.0 - - - - ESE 39 46 21 25 1010.3 1010.3 -
29/02:00pm 26.7 - - - - ESE 37 44 20 24 1010.3 1010.3 -
29/01:30pm 26.8 - - - - ESE 37 46 20 25 1010.5 1010.5 -
29/01:00pm 27.2 - - - - ESE 37 43 20 23 1010.8 1010.8 -
29/12:30pm 27.1 - - - - ESE 39 46 21 25 1011.1 1011.1 -
29/12:13pm 27.0 - - - - ESE 37 46 20 25 1011.0 - -
29/12:00pm 26.2 - - - - SE 33 43 18 23 1011.5 1011.5 -
29/11:30am 26.5 - - - - SE 33 39 18 21 1011.9 1011.9 -
29/11:00am 26.0 - - - - ESE 41 46 22 25 1012.2 1012.2 -
29/10:40am 25.8 - - - - ESE 37 57 20 31 1012.5 1012.5 -
29/10:30am 26.4 - - - - ESE 35 41 19 22 1012.5 1012.5 -
29/10:00am 26.1 - - - - ESE 37 52 20 28 1012.6 1012.6 -
29/09:30am 26.0 - - - - SE 35 44 19 24 1012.7 1012.7 -
29/09:00am 27.0 - - - - SE 37 43 20 23 1012.7 1012.7 -
29/08:30am 26.8 - - - - ESE 41 46 22 25 1012.7 1012.7 -
29/08:00am 26.8 - - - - SE 33 39 18 21 1012.5 1012.5 -
29/07:30am 26.9 - - - - ESE 35 41 19 22 1012.1 1012.1 -
29/07:00am 27.0 - - - - ESE 39 46 21 25 1011.8 1011.8 -
29/06:30am 27.1 - - - - SE 39 44 21 24 1011.4 1011.4 -
29/06:00am 27.1 - - - - SE 39 43 21 23 1011.0 1011.0 -
29/05:30am 27.0 - - - - SE 33 41 18 22 1010.8 1010.8 -
29/05:00am 27.1 - - - - SE 35 39 19 21 1010.6 1010.6 -
29/04:30am 27.2 - - - - SE 35 39 19 21 1010.6 1010.6 -
29/04:00am 27.0 - - - - SE 33 39 18 21 1010.3 1010.3 -
29/03:30am 27.0 - - - - SE 35 39 19 21 1010.1 1010.1 -
29/03:00am 27.0 - - - - SE 33 41 18 22 1010.2 1010.2 -
29/02:30am 27.0 - - - - SE 33 39 18 21 1010.5 1010.5 -
29/02:00am 26.9 - - - - SE 33 39 18 21 1010.8 1010.8 -
29/01:30am 27.0 - - - - SE 35 41 19 22 1011.1 1011.1 -
29/01:00am 27.1 - - - - SE 37 41 20 22 1011.4 1011.4 -
29/12:30am 27.1 - - - - SE 37 43 20 23 1011.7 1011.7 -
29/12:00am 27.2 - - - - SE 39 44 21 24 1011.9 1011.9 -
 
Date/Time
EST
Temp
°C
App
Temp
°C
Dew
Point
°C
Rel
Hum
%
Delta-T
°C
Wind Press
QNH
hPa
Press
MSL
hPa
Rain since
9am
mm
Dir  Spd
km/h
Gust
km/h
Spd
kts
Gust
kts
28/11:30pm 27.1 - - - - SE 39 43 21 23 1012.2 1012.2 -
28/11:00pm 27.2 - - - - ESE 41 46 22 25 1012.2 1012.2 -
28/10:30pm 27.3 - - - - ESE 41 46 22 25 1012.3 1012.3 -
28/10:00pm 27.3 - - - - ESE 41 48 22 26 1012.4 1012.4 -
28/09:30pm 27.2 - - - - ESE 39 46 21 25 1012.3 1012.3 -
28/09:00pm 27.3 - - - - ESE 37 43 20 23 1012.3 1012.3 -
28/08:30pm 27.5 - - - - SE 35 43 19 23 1012.4 1012.4 -
28/08:00pm 27.4 - - - - SE 37 44 20 24 1012.0 1012.0 -
28/07:38pm 26.9 - - - - SE 28 44 15 24 1011.9 1011.9 -
28/07:30pm 26.1 - - - - SSE 20 26 11 14 1012.0 1012.0 -
28/07:00pm 25.3 - - - - S 28 33 15 18 1011.7 1011.7 -
28/06:30pm 25.1 - - - - SSE 32 35 17 19 1011.5 1011.5 -
28/06:00pm 25.2 - - - - SE 39 44 21 24 1011.2 1011.2 -
28/05:30pm 25.6 - - - - ESE 43 48 23 26 1010.6 1010.6 -
28/05:00pm 25.9 - - - - ESE 39 44 21 24 1010.5 1010.5 -
28/04:30pm 26.4 - - - - ESE 35 39 19 21 1010.2 1010.2 -
28/04:00pm 25.9 - - - - ESE 37 43 20 23 1010.2 1010.2 -
28/03:30pm 26.9 - - - - ESE 37 46 20 25 1010.2 1010.2 -
28/03:00pm 27.1 - - - - SE 33 37 18 20 1010.3 1010.3 -
28/02:30pm 26.9 - - - - SE 30 33 16 18 1010.5 1010.5 -
28/02:00pm 26.5 - - - - SE 33 39 18 21 1010.9 1010.9 -
28/01:30pm 26.2 - - - - SE 35 46 19 25 1011.1 1011.1 -
28/01:00pm 27.4 - - - - SE 33 37 18 20 1011.3 1011.3 -
28/12:30pm 27.0 - - - - SE 32 37 17 20 1011.7 1011.7 -
28/12:00pm 27.3 - - - - SE 33 39 18 21 1011.9 1011.9 -
28/11:30am 27.1 - - - - SE 33 37 18 20 1012.3 1012.3 -
28/11:00am 27.1 - - - - SE 35 39 19 21 1012.6 1012.6 -
28/10:30am 27.0 - - - - SE 37 43 20 23 1012.7 1012.7 -
28/10:00am 27.1 - - - - SE 33 39 18 21 1012.7 1012.7 -
28/09:30am 26.8 - - - - ESE 35 41 19 22 1012.5 1012.5 -
28/09:00am 27.2 - - - - SE 37 43 20 23 1012.5 1012.5 -
28/08:30am 27.2 - - - - SE 35 43 19 23 1012.3 1012.3 -
28/08:00am 27.3 - - - - SE 37 43 20 23 1012.1 1012.1 -
28/07:30am 27.2 - - - - SE 37 44 20 24 1011.8 1011.8 -
28/07:00am 27.1 - - - - SE 39 46 21 25 1011.5 1011.5 -
28/06:30am 27.0 - - - - SE 41 46 22 25 1011.4 1011.4 -
28/06:00am 26.8 - - - - SE 39 44 21 24 1011.2 1011.2 -
28/05:30am 26.9 - - - - SE 41 46 22 25 1011.2 1011.2 -
28/05:00am 26.9 - - - - SE 43 48 23 26 1011.0 1011.0 -
28/04:30am 26.9 - - - - SE 39 48 21 26 1011.0 1011.0 -
28/04:00am 27.3 - - - - SE 41 48 22 26 1011.0 1011.0 -
28/03:30am 27.3 - - - - SE 39 46 21 25 1010.9 1010.9 -
28/03:00am 27.5 - - - - ESE 41 46 22 25 1010.8 1010.8 -
28/02:30am 27.3 - - - - ESE 41 46 22 25 1011.0 1011.0 -
28/02:00am 27.4 - - - - ESE 43 50 23 27 1011.3 1011.3 -
28/01:30am 27.5 - - - - ESE 39 44 21 24 1011.6 1011.6 -
28/01:00am 27.7 - - - - ESE 41 46 22 25 1011.9 1011.9 -
28/12:30am 27.6 - - - - ESE 35 44 19 24 1012.0 1012.0 -
28/12:00am 27.6 - - - - ESE 35 43 19 23 1012.4 1012.4 -
 
Date/Time
EST
Temp
°C
App
Temp
°C
Dew
Point
°C
Rel
Hum
%
Delta-T
°C
Wind Press
QNH
hPa
Press
MSL
hPa
Rain since
9am
mm
Dir  Spd
km/h
Gust
km/h
Spd
kts
Gust
kts
27/11:30pm 27.6 - - - - ESE 33 39 18 21 1012.7 1012.7 -
27/11:00pm 27.5 - - - - ESE 32 37 17 20 1013.0 1013.0 -
27/10:30pm 27.6 - - - - ESE 28 32 15 17 1013.0 1013.0 -
27/10:00pm 27.6 - - - - ESE 30 35 16 19 1013.0 1013.0 -
27/09:30pm 27.6 - - - - ESE 26 32 14 17 1013.1 1013.1 -
27/09:00pm 27.5 - - - - ESE 28 32 15 17 1013.1 1013.1 -
27/08:30pm 27.6 - - - - ESE 30 33 16 18 1013.1 1013.1 -
27/08:00pm 27.5 - - - - ESE 28 32 15 17 1012.8 1012.8 -
27/07:30pm 27.6 - - - - ESE 30 33 16 18 1012.5 1012.5 -
27/07:00pm 27.7 - - - - ESE 32 35 17 19 1012.3 1012.3 -
27/06:30pm 27.6 - - - - ESE 30 33 16 18 1012.1 1012.1 -
27/06:00pm 27.6 - - - - ESE 28 32 15 17 1011.8 1011.8 -
27/05:30pm 27.6 - - - - ESE 30 33 16 18 1011.6 1011.6 -
27/05:00pm 27.5 - - - - ESE 26 30 14 16 1011.3 1011.3 -
27/04:30pm 27.5 - - - - SE 24 28 13 15 1011.2 1011.2 -
27/04:00pm 27.6 - - - - ESE 24 26 13 14 1010.9 1010.9 -
27/03:30pm 27.7 - - - - ESE 24 28 13 15 1011.1 1011.1 -
27/03:00pm 27.5 - - - - ESE 24 30 13 16 1011.3 1011.3 -
27/02:30pm 27.5 - - - - ESE 26 28 14 15 1011.4 1011.4 -
27/02:00pm 27.8 - - - - ESE 24 28 13 15 1011.7 1011.7 -
27/01:30pm 27.5 - - - - ESE 24 28 13 15 1012.1 1012.1 -
27/01:00pm 27.5 - - - - ESE 24 28 13 15 1012.4 1012.4 -
27/12:30pm 27.5 - - - - ESE 24 28 13 15 1012.8 1012.8 -
27/12:00pm 27.6 - - - - ESE 24 28 13 15 1013.0 1013.0 -
27/11:30am 27.2 - - - - SE 20 22 11 12 1013.4 1013.4 -
27/11:00am 26.9 - - - - SE 20 22 11 12 1013.6 1013.6 -
27/10:30am 26.6 - - - - ESE 28 32 15 17 1013.9 1013.9 -
27/10:00am 27.2 - - - - ESE 24 28 13 15 1014.0 1014.0 -
27/09:30am 27.1 - - - - SE 24 26 13 14 1014.1 1014.1 -
27/09:00am 27.0 - - - - SE 28 32 15 17 1014.0 1014.0 -
27/08:30am 27.0 - - - - SE 24 30 13 16 1014.2 1014.2 -
27/08:00am 27.0 - - - - SE 30 37 16 20 1013.7 1013.7 -
27/07:30am 27.2 - - - - SE 30 35 16 19 1013.5 1013.5 -
27/07:00am 27.2 - - - - SE 32 37 17 20 1013.1 1013.1 -
27/06:30am 27.0 - - - - SE 30 33 16 18 1013.0 1013.0 -
27/06:00am 27.0 - - - - SE 30 35 16 19 1012.7 1012.7 -
27/05:30am 27.0 - - - - SE 30 33 16 18 1012.4 1012.4 -
27/05:00am 26.9 - - - - SE 30 33 16 18 1012.2 1012.2 -
27/04:30am 27.0 - - - - SE 32 35 17 19 1012.1 1012.1 -
27/04:00am 26.8 - - - - ESE 30 41 16 22 1012.1 1012.1 -
27/03:30am 26.8 - - - - SE 32 35 17 19 1012.1 1012.1 -
27/03:00am 27.0 - - - - SE 32 37 17 20 1012.0 1012.0 -
27/02:30am 26.0 - - - - SSE 30 33 16 18 1012.3 1012.3 -
27/02:00am 26.0 - - - - SSE 28 35 15 19 1012.5 1012.5 -
27/01:30am 25.9 - - - - SSE 32 37 17 20 1012.7 1012.7 -
27/01:00am 26.4 - - - - SE 32 35 17 19 1012.9 1012.9 -
27/12:30am 26.5 - - - - SE 33 39 18 21 1013.1 1013.1 -
27/12:00am 26.6 - - - - SSE 37 43 20 23 1013.4 1013.4 -
 
Date/Time
EST
Temp
°C
App
Temp
°C
Dew
Point
°C
Rel
Hum
%
Delta-T
°C
Wind Press
QNH
hPa
Press
MSL
hPa
Rain since
9am
mm
Dir  Spd
km/h
Gust
km/h
Spd
kts
Gust
kts
26/11:30pm 26.7 - - - - SSE 35 41 19 22 1013.5 1013.5 -
26/11:00pm 26.8 - - - - SSE 32 39 17 21 1013.8 1013.8 -
26/10:30pm 26.7 - - - - SSE 32 41 17 22 1013.9 1013.9 -
26/10:00pm 26.7 - - - - SSE 32 35 17 19 1014.1 1014.1 -
26/09:30pm 26.8 - - - - SSE 33 37 18 20 1014.3 1014.3 -
26/09:00pm 26.6 - - - - SSE 35 39 19 21 1014.2 1014.2 -
26/08:30pm 26.9 - - - - SSE 35 39 19 21 1014.3 1014.3 -
26/08:00pm 26.8 - - - - SSE 33 39 18 21 1014.0 1014.0 -

Other formats

Comma delimited format used in spreadsheet applications
http://www.bom.gov.au/fwo/IDQ60801/IDQ60801.94298.axf

JavaScript Object Notation format (JSON) in row-major order
http://www.bom.gov.au/fwo/IDQ60801/IDQ60801.94298.json

Data quality

Most of these data are generated automatically and are frequently updated. Quality checks on data are not normally performed. It is possible for incorrect values to appear. Refer to information at About Latest Weather Observations and please check the disclaimer before using these data.